To NAV CANADA Home Page Login to a new session Search on AWWS site Feedback and Comments Disclaimer Vers la page française équivalente Tips FAQ What's new on the site To the Forecasts and Observations / NOTAM section To "File a Flight Plan" website Publications and other links Update of the User's profile FIC Telephone Numbers My Weather Data Folder Route Weather Data Regional Weather Data Local Weather Data To the Forecasts and Observations / NOTAM section
Request Generated 04/19/2015 at 22:51:18 UTC . Weather information available at that time is displayed.

METAR/TAF

DEASE LAKE/BC    (show WxCam)

METAR CYDL 192200Z AUTO 19008KT 110V240 9SM FEW038 SCT047 BKN055
BKN067 08/M00 A3009 RMK SLP209=
METAR CYDL 192100Z AUTO 29004KT 220V310 9SM SCT070 07/01 A3010 RMK
SLP214=
SPECI CYDL 192021Z AUTO 18005KT 160V280 9SM SCT023 06/01 A3011 RMK
SLP218=
SPECI CYDL 192015Z AUTO 19003KT 160V260 9SM -RA SCT023 BKN033 06/01
A3012 RMK SLP220=
SPECI CYDL 192005Z AUTO 23003KT 160V260 9SM -RA BKN023 OVC037 05/01
A3012 RMK SLP221=
METAR CYDL 192000Z AUTO 22004KT 9SM -RA SCT023 SCT030 OVC037 05/01
A3012 RMK SLP223=

TAF AMD CYDL 191822Z 1918/2002 VRB03KT P6SM SCT020 OVC040 TEMPO
1918/2002 5SM -RA BR BKN020 OVC040
RMK FCST BASED ON AUTO OBS. NXT FCST BY 200000Z=
Your time UTC time
Weather data provided by Environment Canada and NAV CANADA